Time;durP1;ratioP1;P1;durP2;ratioP2;P2;SDS_P1;SDS_P2;PMS_P1;PMS_P2;Temp;Humidity;BMP_temperature;BMP_pressure;BME280_temperature;BME280_humidity;BME280_pressure;Samples;Min_cycle;Max_cycle;Signal;HPM_P1;HPM_P2
2021/10/24 00:01:53;;;;;;;6.03;1.23;;;;;;;10.55;59.76;102196.69;5014202;28;20037;-76
2021/10/24 00:04:18;;;;;;;3.47;1.00;;;;;;;10.54;59.99;102200.50;5012592;28;20030;-76
2021/10/24 00:06:45;;;;;;;3.47;0.80;;;;;;;10.53;60.01;102196.13;5013239;28;20378;-77
2021/10/24 00:09:11;;;;;;;5.47;1.63;;;;;;;10.55;59.99;102198.59;4995443;28;20029;-76
2021/10/24 00:11:37;;;;;;;3.95;0.95;;;;;;;10.55;60.02;102195.88;5010633;28;20029;-75
2021/10/24 00:14:04;;;;;;;5.05;1.17;;;;;;;10.54;60.46;102195.06;5002369;28;20030;-75
2021/10/24 00:16:31;;;;;;;7.20;1.20;;;;;;;10.55;60.96;102213.06;5013456;28;20030;-76
2021/10/24 00:18:56;;;;;;;4.55;0.90;;;;;;;10.57;60.86;102205.47;5011839;28;20425;-76
2021/10/24 00:21:21;;;;;;;7.93;1.25;;;;;;;10.57;61.05;102194.56;5012584;28;20045;-75
2021/10/24 00:23:48;;;;;;;7.90;1.02;;;;;;;10.58;61.70;102198.94;5012618;28;20026;-77
2021/10/24 00:26:13;;;;;;;8.13;1.15;;;;;;;10.59;61.78;102202.53;5013563;28;20026;-76
2021/10/24 00:28:39;;;;;;;4.30;0.93;;;;;;;10.59;61.85;102197.06;5012490;28;20025;-75
2021/10/24 00:31:04;;;;;;;7.18;1.10;;;;;;;10.61;62.04;102187.59;5013516;28;20079;-77
2021/10/24 00:33:30;;;;;;;5.63;0.98;;;;;;;10.62;61.88;102191.13;5012433;28;20488;-76
2021/10/24 00:35:55;;;;;;;2.72;1.35;;;;;;;10.64;62.05;102194.47;5013367;28;20018;-76
2021/10/24 00:38:21;;;;;;;5.28;1.17;;;;;;;10.64;62.02;102184.38;5010602;28;20056;-76
2021/10/24 00:40:46;;;;;;;10.90;1.42;;;;;;;10.65;62.37;102185.19;5013269;28;20086;-77
2021/10/24 00:43:12;;;;;;;5.57;1.13;;;;;;;10.68;62.06;102195.63;5012585;28;20029;-76
2021/10/24 00:45:37;;;;;;;4.38;1.08;;;;;;;10.69;62.00;102193.72;4990767;28;20042;-76
2021/10/24 00:48:02;;;;;;;5.15;1.27;;;;;;;10.71;62.27;102202.50;5013088;28;20499;-76
2021/10/24 00:50:29;;;;;;;3.17;0.90;;;;;;;10.73;62.54;102186.72;5012357;28;20068;-76
2021/10/24 00:52:54;;;;;;;7.70;1.30;;;;;;;10.75;62.41;102190.03;4979114;28;20108;-76
2021/10/24 00:55:21;;;;;;;5.32;1.23;;;;;;;10.75;62.58;102192.75;4994661;28;20029;-76
2021/10/24 00:57:47;;;;;;;9.35;1.42;;;;;;;10.77;63.43;102193.34;4995546;28;20065;-75
2021/10/24 01:00:13;;;;;;;4.20;1.10;;;;;;;10.77;62.69;102183.25;4994718;28;20038;-76
2021/10/24 01:02:39;;;;;;;4.57;1.10;;;;;;;10.76;63.34;102192.53;4995534;28;20026;-76
2021/10/24 01:05:05;;;;;;;6.45;0.90;;;;;;;10.76;63.12;102180.78;5012154;28;20041;-76
2021/10/24 01:07:31;;;;;;;4.18;1.10;;;;;;;10.74;63.35;102188.38;5013013;28;20238;-76
2021/10/24 01:09:57;;;;;;;5.38;1.23;;;;;;;10.72;63.16;102179.59;5011769;28;20108;-76
2021/10/24 01:12:22;;;;;;;6.85;1.08;;;;;;;10.70;63.48;102176.31;4994492;28;20033;-76
2021/10/24 01:14:47;;;;;;;6.45;1.45;;;;;;;10.69;64.05;102166.44;4993646;28;20477;-76
2021/10/24 01:17:13;;;;;;;8.23;1.15;;;;;;;10.69;64.40;102169.16;5012735;28;20026;-75
2021/10/24 01:19:38;;;;;;;6.72;1.20;;;;;;;10.70;65.14;102159.94;4994676;28;20088;-76
2021/10/24 01:22:04;;;;;;;5.72;1.13;;;;;;;10.69;64.60;102178.16;5012447;28;20116;-75
2021/10/24 01:24:29;;;;;;;7.15;1.55;;;;;;;10.72;64.87;102168.69;5012022;28;20504;-75
2021/10/24 01:26:55;;;;;;;4.75;1.38;;;;;;;10.73;64.94;102167.63;4996751;28;20033;-75
2021/10/24 01:29:20;;;;;;;7.78;2.10;;;;;;;10.72;65.14;102166.81;5000224;28;20072;-76
2021/10/24 01:31:46;;;;;;;6.13;1.90;;;;;;;10.75;65.76;102163.59;5019088;28;20029;-76
2021/10/24 01:34:11;;;;;;;6.63;1.60;;;;;;;10.74;66.13;102177.47;5018605;28;20037;-76
2021/10/24 01:36:36;;;;;;;5.57;1.70;;;;;;;10.72;65.65;102153.16;5019208;28;20420;-76
2021/10/24 01:39:02;;;;;;;4.38;1.23;;;;;;;10.70;65.84;102147.13;4995811;28;20038;-75
2021/10/24 01:41:28;;;;;;;6.88;1.55;;;;;;;10.68;66.28;102141.06;5010232;28;20433;-77
2021/10/24 01:43:54;;;;;;;9.05;1.63;;;;;;;10.64;66.05;102140.72;4995711;28;20084;-76
2021/10/24 01:46:19;;;;;;;3.75;1.58;;;;;;;10.61;65.58;102135.75;5019029;28;20025;-76
2021/10/24 01:48:45;;;;;;;5.28;1.20;;;;;;;10.61;66.05;102135.75;5018439;28;20044;-76
2021/10/24 01:51:11;;;;;;;7.47;1.60;;;;;;;10.60;66.21;102150.44;5019054;28;20025;-76
2021/10/24 01:53:39;;;;;;;6.72;1.55;;;;;;;10.60;66.44;102150.44;5017900;28;20029;-76
2021/10/24 01:56:04;;;;;;;6.40;2.25;;;;;;;10.61;66.61;102140.38;4985147;28;20025;-76
2021/10/24 01:58:30;;;;;;;8.63;1.58;;;;;;;10.61;67.32;102154.84;5018616;28;20036;-76
2021/10/24 02:00:55;;;;;;;10.45;1.42;;;;;;;10.62;67.56;102137.41;5019091;28;20477;-76
2021/10/24 02:03:21;;;;;;;6.40;1.75;;;;;;;10.64;68.26;102137.19;5018223;28;20193;-77
2021/10/24 02:05:46;;;;;;;8.30;1.70;;;;;;;10.62;68.54;102140.13;5018161;28;20057;-77
2021/10/24 02:08:12;;;;;;;6.07;1.65;;;;;;;10.61;68.90;102130.31;5001219;28;20024;-77
2021/10/24 02:10:37;;;;;;;5.88;1.55;;;;;;;10.64;69.34;102140.72;5018371;28;20036;-77
2021/10/24 02:13:03;;;;;;;10.70;1.52;;;;;;;10.65;69.56;102123.28;5000210;28;20476;-75
2021/10/24 02:15:29;;;;;;;8.07;1.80;;;;;;;10.65;70.00;102131.47;4999712;28;20037;-75
2021/10/24 02:17:55;;;;;;;10.80;2.45;;;;;;;10.65;70.27;102139.66;5018865;28;20021;-75
2021/10/24 02:20:20;;;;;;;6.70;1.63;;;;;;;10.64;70.69;102127.09;5000366;28;20026;-76
2021/10/24 02:22:45;;;;;;;6.13;1.70;;;;;;;10.64;71.34;102118.09;5018707;28;20054;-75
2021/10/24 02:25:11;;;;;;;10.45;1.63;;;;;;;10.65;71.47;102130.66;5016795;28;20036;-75
2021/10/24 02:27:38;;;;;;;9.38;1.75;;;;;;;10.66;72.40;102122.19;5001206;28;20082;-76
2021/10/24 02:30:05;;;;;;;8.30;2.10;;;;;;;10.65;72.51;102114.28;5000301;28;20544;-76
2021/10/24 02:32:30;;;;;;;12.25;2.03;;;;;;;10.64;72.79;102110.72;5001076;28;20032;-76
2021/10/24 02:34:55;;;;;;;10.10;1.85;;;;;;;10.64;72.75;102118.91;5000419;28;20440;-76
2021/10/24 02:37:21;;;;;;;5.55;1.70;;;;;;;10.64;72.95;102113.47;5017563;28;20040;-76
2021/10/24 02:39:46;;;;;;;7.88;2.25;;;;;;;10.67;72.72;102117.59;4997630;28;20022;-76
2021/10/24 02:42:12;;;;;;;10.90;2.33;;;;;;;10.71;73.30;102115.22;5015507;28;20492;-76
2021/10/24 02:44:37;;;;;;;12.88;1.77;;;;;;;10.71;73.45;102109.75;4996296;28;20069;-76
2021/10/24 02:47:03;;;;;;;5.60;1.52;;;;;;;10.73;73.90;102111.16;5015784;28;20022;-76
2021/10/24 02:49:29;;;;;;;6.85;1.60;;;;;;;10.72;73.86;102114.13;4997090;28;20083;-76
2021/10/24 02:51:54;;;;;;;9.40;2.05;;;;;;;10.71;73.94;102107.03;5015732;28;20025;-77
2021/10/24 02:54:20;;;;;;;10.10;2.00;;;;;;;10.72;74.36;102119.59;4997133;28;20032;-76
2021/10/24 02:56:45;;;;;;;6.47;1.50;;;;;;;10.71;74.56;102105.13;4998036;28;20029;-76
2021/10/24 02:59:12;;;;;;;8.23;1.77;;;;;;;10.73;74.47;102107.63;4980848;28;20626;-76
2021/10/24 03:01:37;;;;;;;8.27;1.80;;;;;;;10.72;74.23;102101.34;5013922;28;20095;-77
2021/10/24 03:04:04;;;;;;;11.98;2.67;;;;;;;10.72;74.07;102093.16;4996615;28;20026;-76
2021/10/24 03:06:30;;;;;;;15.45;2.42;;;;;;;10.73;74.28;102094.81;4997503;28;20021;-77
2021/10/24 03:08:56;;;;;;;14.45;2.47;;;;;;;10.74;74.46;102098.34;4997176;28;20026;-76
2021/10/24 03:11:21;;;;;;;12.27;2.80;;;;;;;10.74;74.42;102095.63;4997601;28;20117;-77
2021/10/24 03:13:47;;;;;;;11.73;2.53;;;;;;;10.74;74.06;102092.91;5012214;28;20026;-76
2021/10/24 03:16:12;;;;;;;7.25;1.90;;;;;;;10.76;74.20;102082.59;5014075;28;20033;-76
2021/10/24 03:18:38;;;;;;;10.90;2.05;;;;;;;10.78;74.01;102089.44;4997241;28;20519;-77
2021/10/24 03:21:03;;;;;;;8.23;1.77;;;;;;;10.79;73.90;102082.09;5014036;28;20033;-76
2021/10/24 03:23:28;;;;;;;7.32;1.75;;;;;;;10.80;73.86;102078.28;4997142;28;20061;-77
2021/10/24 03:25:54;;;;;;;7.85;1.77;;;;;;;10.82;73.77;102081.59;4996598;28;20029;-77
2021/10/24 03:28:19;;;;;;;8.23;1.92;;;;;;;10.83;73.67;102077.78;5014836;28;20022;-77
2021/10/24 03:30:45;;;;;;;10.43;1.98;;;;;;;10.83;73.30;102078.66;5014028;28;20480;-75
2021/10/24 03:33:10;;;;;;;8.48;1.85;;;;;;;10.86;73.10;102071.88;5014956;28;20030;-77
2021/10/24 03:35:36;;;;;;;8.30;1.70;;;;;;;10.89;73.13;102071.38;4996590;28;20428;-76
2021/10/24 03:38:01;;;;;;;6.50;0.95;;;;;;;10.89;73.07;102071.38;5015039;28;20106;-76
2021/10/24 03:40:26;;;;;;;9.23;1.77;;;;;;;10.88;73.55;102070.56;5013769;28;20033;-76
2021/10/24 03:42:52;;;;;;;6.28;1.52;;;;;;;10.87;73.79;102078.97;4995482;28;20026;-77
2021/10/24 03:45:17;;;;;;;10.75;2.35;;;;;;;10.86;74.53;102078.16;5012600;28;20029;-77
2021/10/24 03:47:43;;;;;;;7.03;1.73;;;;;;;10.86;74.58;102074.59;4997086;28;20060;-75
2021/10/24 03:50:08;;;;;;;11.32;2.80;;;;;;;10.82;74.79;102066.06;5013001;28;20044;-75
2021/10/24 03:52:34;;;;;;;9.75;2.10;;;;;;;10.80;75.46;102072.81;5014298;28;20061;-76
2021/10/24 03:54:59;;;;;;;7.65;1.83;;;;;;;10.79;75.94;102101.19;5013534;28;20083;-75
2021/10/24 03:57:25;;;;;;;7.90;1.90;;;;;;;10.77;76.28;102067.84;4996692;28;20037;-75
2021/10/24 03:59:50;;;;;;;12.55;2.22;;;;;;;10.74;76.20;102068.34;4991978;28;20030;-76
2021/10/24 04:02:16;;;;;;;12.90;2.38;;;;;;;10.74;76.85;102069.16;4987457;28;20470;-76
2021/10/24 04:04:43;;;;;;;9.00;2.00;;;;;;;10.72;77.06;102070.47;4991818;28;20055;-76
2021/10/24 04:07:09;;;;;;;10.57;2.03;;;;;;;10.71;77.35;102068.84;4996912;28;20473;-76
2021/10/24 04:09:35;;;;;;;10.65;2.72;;;;;;;10.70;78.01;102072.66;4994512;28;20040;-75
2021/10/24 04:12:00;;;;;;;11.68;1.92;;;;;;;10.69;78.55;102081.88;4995536;28;20037;-76
2021/10/24 04:14:25;;;;;;;5.28;1.77;;;;;;;10.65;78.60;102071.47;4995623;28;20026;-76
2021/10/24 04:16:51;;;;;;;7.63;1.60;;;;;;;10.65;78.87;102079.66;5013887;28;20562;-76
2021/10/24 04:19:17;;;;;;;11.10;1.98;;;;;;;10.64;79.02;102078.00;5013869;28;20033;-77
2021/10/24 04:21:42;;;;;;;6.70;1.70;;;;;;;10.62;79.00;102069.22;4978845;28;20077;-76
2021/10/24 04:24:08;;;;;;;9.88;2.15;;;;;;;10.62;79.11;102071.94;4995390;28;20021;-76
2021/10/24 04:26:33;;;;;;;13.05;2.35;;;;;;;10.64;79.19;102061.63;5012093;28;20022;-76
2021/10/24 04:28:59;;;;;;;9.20;1.90;;;;;;;10.65;79.04;102066.00;5014024;28;20500;-76
2021/10/24 04:31:24;;;;;;;10.05;2.78;;;;;;;10.66;79.03;102045.84;5012484;28;20034;-76
2021/10/24 04:33:50;;;;;;;15.23;2.70;;;;;;;10.68;79.14;102058.41;5013637;28;20029;-76
2021/10/24 04:36:15;;;;;;;11.52;1.90;;;;;;;10.69;79.32;102070.97;5011398;28;20029;-76
2021/10/24 04:38:40;;;;;;;5.25;1.90;;;;;;;10.71;79.36;102044.28;5013363;28;20024;-76
2021/10/24 04:41:06;;;;;;;7.15;1.50;;;;;;;10.73;79.57;102058.53;5011172;28;20026;-77
2021/10/24 04:43:31;;;;;;;8.50;2.08;;;;;;;10.74;79.79;102071.91;5013504;28;20049;-77
2021/10/24 04:45:57;;;;;;;9.02;2.47;;;;;;;10.80;80.77;102078.28;5012130;28;20045;-76
2021/10/24 04:48:23;;;;;;;9.60;2.00;;;;;;;10.81;81.10;102069.03;5013404;28;20022;-76
2021/10/24 04:50:48;;;;;;;9.48;2.15;;;;;;;10.81;81.31;102058.94;5012503;28;20436;-76
2021/10/24 04:53:13;;;;;;;7.03;1.70;;;;;;;10.84;81.48;102049.44;5013060;28;20025;-76
2021/10/24 04:55:39;;;;;;;9.35;2.05;;;;;;;10.84;81.41;102063.09;4994557;28;20030;-77
2021/10/24 04:58:05;;;;;;;10.93;2.20;;;;;;;10.87;81.71;102051.69;4995872;28;20076;-76
2021/10/24 05:00:31;;;;;;;6.90;1.83;;;;;;;10.86;81.52;102041.84;5012650;28;20465;-77
2021/10/24 05:02:59;;;;;;;9.75;2.47;;;;;;;10.85;81.63;102035.56;4994702;28;20030;-76
2021/10/24 05:05:24;;;;;;;7.40;1.95;;;;;;;10.82;81.55;102043.41;5012050;28;20033;-76
2021/10/24 05:07:50;;;;;;;10.13;2.60;;;;;;;10.80;81.74;102051.00;4995403;28;20391;-76
2021/10/24 05:10:15;;;;;;;15.30;2.00;;;;;;;10.79;81.96;102041.16;5011103;28;20041;-76
2021/10/24 05:12:40;;;;;;;8.65;2.78;;;;;;;10.77;81.51;102041.41;5013384;28;20095;-76
2021/10/24 05:15:06;;;;;;;11.93;2.10;;;;;;;10.75;82.05;102037.25;5012089;28;20504;-76
2021/10/24 05:17:32;;;;;;;11.50;2.13;;;;;;;10.75;81.98;102038.13;4995260;28;20034;-76
2021/10/24 05:19:57;;;;;;;14.95;2.15;;;;;;;10.75;82.09;102027.19;5011886;28;20091;-76
2021/10/24 05:22:23;;;;;;;14.95;2.58;;;;;;;10.76;82.09;102034.31;4995271;28;20421;-77
2021/10/24 05:24:48;;;;;;;13.63;2.05;;;;;;;10.75;82.00;102015.44;5012365;28;20392;-76
2021/10/24 05:27:15;;;;;;;7.28;1.92;;;;;;;10.74;81.92;102025.53;4979090;28;20026;-77
2021/10/24 05:29:40;;;;;;;10.20;2.08;;;;;;;10.73;82.17;102023.06;5012181;28;20433;-76
2021/10/24 05:32:06;;;;;;;13.25;2.15;;;;;;;10.74;82.52;102019.25;4994376;28;20037;-77
2021/10/24 05:34:31;;;;;;;8.43;2.00;;;;;;;10.73;82.80;102023.06;5012062;28;20021;-76
2021/10/24 05:36:57;;;;;;;8.60;1.77;;;;;;;10.74;82.84;102003.69;5010721;28;20433;-76
2021/10/24 05:39:22;;;;;;;7.90;1.90;;;;;;;10.77;82.99;102014.13;5013168;28;20030;-77
2021/10/24 05:41:47;;;;;;;14.13;2.28;;;;;;;10.81;82.93;102017.22;4994790;28;20501;-76
2021/10/24 05:44:14;;;;;;;10.52;2.00;;;;;;;10.82;83.11;102035.22;4994795;28;20034;-76
2021/10/24 05:46:40;;;;;;;9.70;2.15;;;;;;;10.80;83.16;102007.34;4994433;28;20018;-76
2021/10/24 05:49:07;;;;;;;9.85;2.45;;;;;;;10.77;83.10;102025.03;5012653;28;20512;-76
2021/10/24 05:51:32;;;;;;;8.52;2.70;;;;;;;10.76;83.21;102028.03;5011087;28;20041;-77
2021/10/24 05:53:58;;;;;;;12.85;2.88;;;;;;;10.76;83.63;102025.28;5012671;28;20034;-77
2021/10/24 05:56:24;;;;;;;13.68;2.58;;;;;;;10.76;83.87;102022.56;5011394;28;20109;-76
2021/10/24 05:58:49;;;;;;;12.15;2.42;;;;;;;10.74;83.87;102020.06;4995341;28;20077;-76
2021/10/24 06:01:15;;;;;;;9.73;2.30;;;;;;;10.72;84.53;102014.06;5011892;28;20022;-76
2021/10/24 06:03:40;;;;;;;10.18;2.40;;;;;;;10.72;84.62;102032.28;5012744;28;20030;-76
2021/10/24 06:06:05;;;;;;;10.02;2.28;;;;;;;10.72;84.75;102015.94;5009812;28;20029;-77
2021/10/24 06:08:31;;;;;;;12.05;2.53;;;;;;;10.72;84.81;102015.94;4995045;28;20429;-77
2021/10/24 06:11:13;;;;;;;10.68;3.28;;;;;;;10.72;84.63;102005.88;4994465;28;20034;-76
2021/10/24 06:13:40;;;;;;;14.60;3.17;;;;;;;10.74;85.05;101998.25;4965309;28;20065;-76
2021/10/24 06:16:05;;;;;;;9.43;2.35;;;;;;;10.76;85.19;102007.03;4988520;28;20022;-77
2021/10/24 06:18:30;;;;;;;18.90;3.08;;;;;;;10.78;85.28;102007.63;5016013;28;20366;-76
2021/10/24 06:20:56;;;;;;;10.07;2.58;;;;;;;10.81;85.27;102014.47;5014783;28;20025;-76
2021/10/24 06:23:21;;;;;;;8.15;2.10;;;;;;;10.85;85.57;102008.25;5014925;28;20045;-76
2021/10/24 06:25:46;;;;;;;13.45;3.60;;;;;;;10.89;85.67;102022.28;4997664;28;20503;-77
2021/10/24 06:28:15;;;;;;;15.00;2.97;;;;;;;10.91;86.01;102005.63;5016193;28;20339;-76
2021/10/24 06:30:41;;;;;;;10.10;2.70;;;;;;;10.93;85.92;102008.94;4984182;28;20130;-76
2021/10/24 06:33:06;;;;;;;14.52;3.08;;;;;;;10.96;86.00;102011.19;5015837;28;20285;-78
2021/10/24 06:35:32;;;;;;;14.93;3.58;;;;;;;10.97;85.59;102023.78;4997096;28;20385;-76
2021/10/24 06:37:57;;;;;;;13.00;3.65;;;;;;;10.98;86.22;102015.31;5013476;28;20029;-76
2021/10/24 06:40:22;;;;;;;13.07;3.40;;;;;;;10.99;86.09;102010.69;5014746;28;20034;-75
2021/10/24 06:42:48;;;;;;;22.52;4.55;;;;;;;10.99;85.80;102005.22;5015625;28;20032;-76
2021/10/24 06:45:13;;;;;;;14.70;4.47;;;;;;;11.00;86.08;102005.00;5014606;28;20025;-76
2021/10/24 06:47:39;;;;;;;15.13;3.28;;;;;;;11.01;86.25;102009.38;5015516;28;20051;-76
2021/10/24 06:50:05;;;;;;;13.32;2.92;;;;;;;11.01;86.33;102014.81;5007472;28;20030;-76
2021/10/24 06:52:31;;;;;;;15.55;3.58;;;;;;;11.04;86.62;102014.34;5015147;28;20524;-76
2021/10/24 06:54:57;;;;;;;16.27;4.03;;;;;;;11.05;86.65;102017.91;5015280;28;20021;-76
2021/10/24 06:57:23;;;;;;;11.00;3.35;;;;;;;11.06;86.63;102011.38;5014447;28;20030;-76
2021/10/24 06:59:49;;;;;;;19.90;3.80;;;;;;;11.08;87.00;102009.22;5015115;28;20025;-76
2021/10/24 07:02:16;;;;;;;16.83;3.33;;;;;;;11.10;86.72;102007.91;5014429;28;20108;-76
2021/10/24 07:04:42;;;;;;;14.85;3.15;;;;;;;11.11;86.65;102004.09;4996298;28;20025;-77
2021/10/24 07:07:07;;;;;;;16.17;3.55;;;;;;;11.13;86.91;102003.00;5014345;28;20440;-77
2021/10/24 07:09:33;;;;;;;12.15;3.00;;;;;;;11.15;86.86;102009.06;5015177;28;20037;-76
2021/10/24 07:11:58;;;;;;;13.45;3.55;;;;;;;11.18;86.96;102011.28;4980540;28;20436;-77
2021/10/24 07:14:24;;;;;;;17.83;4.38;;;;;;;11.20;87.10;102000.94;5015246;28;20083;-77
2021/10/24 07:16:49;;;;;;;15.13;4.13;;;;;;;11.24;87.26;102015.75;5014126;28;20117;-77
2021/10/24 07:19:15;;;;;;;15.43;3.70;;;;;;;11.25;87.38;102011.97;5015049;28;20065;-76
2021/10/24 07:21:40;;;;;;;18.45;4.50;;;;;;;11.26;87.56;102000.78;4996148;28;20061;-76
2021/10/24 07:24:06;;;;;;;19.13;4.53;;;;;;;11.28;87.95;102016.91;5015009;28;20283;-76
2021/10/24 07:26:33;;;;;;;22.95;4.28;;;;;;;11.30;87.81;101995.66;5012111;28;20014;-76
2021/10/24 07:28:59;;;;;;;21.17;5.78;;;;;;;11.30;87.66;102001.13;4983317;28;20373;-76
2021/10/24 07:31:25;;;;;;;20.48;6.00;;;;;;;11.32;87.92;102034.44;5013720;28;20056;-76
2021/10/24 07:33:50;;;;;;;15.80;4.45;;;;;;;11.33;88.06;101995.16;4997234;28;20026;-76
2021/10/24 07:36:16;;;;;;;15.25;4.80;;;;;;;11.33;87.78;102012.38;5013890;28;20084;-77
2021/10/24 07:38:41;;;;;;;19.13;4.50;;;;;;;11.29;88.23;102011.22;4996905;28;20377;-77
2021/10/24 07:41:06;;;;;;;16.40;4.68;;;;;;;11.23;88.81;102011.38;5013656;28;20033;-77
2021/10/24 07:43:32;;;;;;;17.02;4.55;;;;;;;11.15;89.08;102015.34;5014488;28;20041;-75
2021/10/24 07:45:58;;;;;;;17.25;5.22;;;;;;;11.06;89.46;102012.19;4995814;28;20021;-75
2021/10/24 07:48:23;;;;;;;20.42;5.18;;;;;;;11.03;89.88;102018.16;4996865;28;20044;-75
2021/10/24 07:50:49;;;;;;;21.13;6.03;;;;;;;11.00;89.98;102015.09;4979388;28;20026;-75
2021/10/24 07:53:15;;;;;;;21.58;5.57;;;;;;;10.99;90.06;102008.78;5014008;28;20101;-76
2021/10/24 07:55:40;;;;;;;14.60;4.90;;;;;;;11.03;90.17;102018.16;5013167;28;20033;-76
2021/10/24 07:58:06;;;;;;;20.35;6.47;;;;;;;11.07;90.24;102013.84;5012697;28;20079;-75
2021/10/24 08:00:31;;;;;;;17.83;6.35;;;;;;;11.13;90.29;102027.56;5013828;28;20035;-76
2021/10/24 08:02:57;;;;;;;21.02;6.38;;;;;;;11.16;90.22;102022.47;4995681;28;20038;-75
2021/10/24 08:05:24;;;;;;;22.05;6.95;;;;;;;11.19;90.18;102021.16;5014146;28;20089;-75
2021/10/24 08:07:49;;;;;;;10.48;5.15;;;;;;;11.20;89.99;102023.59;4976185;28;20363;-75
2021/10/24 08:10:15;;;;;;;17.33;6.15;;;;;;;11.22;89.98;102020.66;5013522;28;20045;-75
2021/10/24 08:12:40;;;;;;;23.10;6.47;;;;;;;11.23;89.96;102020.38;5012804;28;20193;-76
2021/10/24 08:15:07;;;;;;;14.25;4.75;;;;;;;11.26;89.84;102019.06;5013648;28;20521;-76
2021/10/24 08:17:32;;;;;;;22.88;6.22;;;;;;;11.29;89.56;102021.28;5003060;28;20026;-76
2021/10/24 08:19:57;;;;;;;21.88;5.63;;;;;;;11.33;89.73;102017.00;5009455;28;20436;-76
2021/10/24 08:22:23;;;;;;;20.55;6.10;;;;;;;11.37;89.66;102018.16;4994131;28;20382;-76
2021/10/24 08:24:49;;;;;;;14.68;5.93;;;;;;;11.40;89.62;102014.91;5012744;28;20021;-76
2021/10/24 08:27:14;;;;;;;28.50;6.97;;;;;;;11.42;89.43;102020.97;5011512;28;20071;-75
2021/10/24 08:29:40;;;;;;;25.45;5.90;;;;;;;11.41;89.07;102022.03;5013484;28;20030;-75
2021/10/24 08:32:09;;;;;;;14.85;5.70;;;;;;;11.43;89.10;102025.38;4995073;28;20044;-75
2021/10/24 08:34:35;;;;;;;15.75;4.70;;;;;;;11.45;89.14;102020.44;5013397;28;20076;-75
2021/10/24 08:37:02;;;;;;;21.60;5.65;;;;;;;11.47;89.15;102028.41;5010279;28;20038;-75
2021/10/24 08:39:27;;;;;;;21.63;6.15;;;;;;;11.47;89.11;102029.22;4996221;28;20037;-75
2021/10/24 08:41:54;;;;;;;16.17;5.50;;;;;;;11.47;88.93;102029.22;4994634;28;20037;-75
2021/10/24 08:44:19;;;;;;;21.98;5.45;;;;;;;11.50;88.97;102027.91;4962674;28;20080;-75
2021/10/24 08:46:45;;;;;;;21.48;5.78;;;;;;;11.52;89.10;102026.59;4994801;28;20034;-75
2021/10/24 08:49:10;;;;;;;22.27;6.00;;;;;;;11.55;88.87;102039.75;5013006;28;20198;-74
2021/10/24 08:51:35;;;;;;;20.58;6.03;;;;;;;11.54;88.82;102027.16;4993501;28;20034;-74
2021/10/24 08:54:01;;;;;;;28.55;6.72;;;;;;;11.58;88.72;102029.41;5012892;28;20033;-76
2021/10/24 08:56:30;;;;;;;20.80;7.00;;;;;;;11.60;88.60;102036.28;5011837;28;20053;-76
2021/10/24 08:58:59;;;;;;;24.00;5.82;;;;;;;11.65;88.78;102024.56;4995582;28;20021;-76
2021/10/24 09:01:26;;;;;;;17.75;5.82;;;;;;;11.66;88.73;102039.91;5011762;28;20022;-75
2021/10/24 09:04:13;;;;;;;23.38;7.15;;;;;;;11.69;88.72;102025.75;5012984;28;20104;-75
2021/10/24 09:06:57;;;;;;;15.30;6.35;;;;;;;11.73;88.69;102040.53;4994721;28;20022;-76
2021/10/24 09:09:30;;;;;;;21.48;5.45;;;;;;;11.74;88.22;102029.38;5012908;28;20026;-76
2021/10/24 09:12:01;;;;;;;14.57;6.55;;;;;;;11.75;87.99;102036.47;4978117;28;20025;-76
2021/10/24 09:14:48;;;;;;;20.75;6.45;;;;;;;11.78;87.82;102024.22;5012888;28;20026;-75
2021/10/24 09:17:19;;;;;;;25.80;7.38;;;;;;;11.81;87.69;102031.91;5003042;28;20029;-77
2021/10/24 09:19:46;;;;;;;24.48;6.80;;;;;;;11.84;87.88;102034.16;5011775;28;20446;-76
2021/10/24 09:22:20;;;;;;;18.95;7.05;;;;;;;11.88;87.50;102031.78;5002711;28;20081;-76
2021/10/24 09:25:19;;;;;;;27.95;7.40;;;;;;;11.90;87.29;102032.38;4994032;28;20026;-76
2021/10/24 09:27:56;;;;;;;16.60;6.00;;;;;;;11.92;86.94;102036.50;4959574;28;20069;-76
2021/10/24 09:30:34;;;;;;;20.20;6.80;;;;;;;11.92;86.43;102028.31;5010220;28;20060;-76
2021/10/24 09:33:04;;;;;;;17.80;7.10;;;;;;;11.92;86.44;102022.84;5011577;28;20029;-76
2021/10/24 09:35:36;;;;;;;23.30;8.07;;;;;;;11.93;86.27;102049.06;5012383;28;20025;-76
2021/10/24 09:38:05;;;;;;;18.65;7.72;;;;;;;11.94;86.02;102050.72;5011450;28;20040;-76
2021/10/24 09:40:36;;;;;;;22.38;8.48;;;;;;;11.96;85.88;102042.28;4994757;28;20073;-76
2021/10/24 09:43:12;;;;;;;21.45;7.75;;;;;;;11.97;85.30;102036.53;5011648;28;20377;-77
2021/10/24 09:45:41;;;;;;;22.60;7.00;;;;;;;12.02;85.44;102030.31;4994860;28;20350;-76
2021/10/24 09:48:12;;;;;;;21.40;7.10;;;;;;;12.08;85.58;102039.41;4992488;28;20030;-76
2021/10/24 09:50:42;;;;;;;16.15;6.05;;;;;;;12.07;85.15;102043.25;5016560;28;20026;-77
2021/10/24 09:53:12;;;;;;;22.92;6.95;;;;;;;12.02;84.94;102018.56;4982556;28;20040;-76
2021/10/24 09:55:41;;;;;;;29.65;9.27;;;;;;;11.98;85.45;102051.06;5016568;28;20111;-76
2021/10/24 09:58:07;;;;;;;13.60;6.43;;;;;;;11.95;85.35;102033.25;4998302;28;20033;-76
2021/10/24 10:00:33;;;;;;;21.05;7.03;;;;;;;11.92;85.74;102036.50;5016349;28;20485;-76
2021/10/24 10:02:59;;;;;;;26.60;8.68;;;;;;;11.89;85.77;102031.50;4981349;28;20401;-76
2021/10/24 10:05:24;;;;;;;24.15;8.15;;;;;;;11.88;85.72;102040.78;4982349;28;20388;-76
2021/10/24 10:07:50;;;;;;;23.88;9.05;;;;;;;11.89;85.77;102036.97;4981595;28;20030;-76
2021/10/24 10:10:15;;;;;;;22.40;9.27;;;;;;;11.88;85.54;102032.59;5002485;28;20037;-77
2021/10/24 10:12:45;;;;;;;19.95;8.63;;;;;;;11.88;85.71;102040.78;4986137;28;20026;-76
2021/10/24 10:15:11;;;;;;;28.45;11.02;;;;;;;11.91;85.69;102037.56;4981838;28;20056;-76
2021/10/24 10:17:37;;;;;;;22.13;8.98;;;;;;;11.90;85.81;102027.72;4976949;28;20478;-77
2021/10/24 10:20:24;;;;;;;24.63;10.18;;;;;;;11.91;86.14;102029.34;4995136;28;20536;-76
2021/10/24 10:23:06;;;;;;;26.45;9.40;;;;;;;11.89;86.31;102020.56;5014935;28;20513;-75
2021/10/24 10:25:32;;;;;;;20.73;8.25;;;;;;;11.89;86.37;102023.31;5015829;28;20527;-75
2021/10/24 10:27:58;;;;;;;23.42;10.25;;;;;;;11.89;86.13;102026.03;5014961;28;20392;-75
2021/10/24 10:30:40;;;;;;;21.55;8.77;;;;;;;11.92;86.09;102031.03;4994200;28;20071;-75
2021/10/24 10:33:30;;;;;;;27.98;9.18;;;;;;;11.96;86.31;102036.81;4976390;28;20060;-77
2021/10/24 10:35:56;;;;;;;19.85;7.30;;;;;;;11.99;86.49;102031.66;5008523;28;20026;-75
2021/10/24 10:38:32;;;;;;;16.30;6.15;;;;;;;12.01;86.67;102014.19;4996488;28;20026;-76
2021/10/24 10:40:57;;;;;;;15.40;6.13;;;;;;;12.01;86.37;102028.69;4982555;28;20500;-75
2021/10/24 10:43:23;;;;;;;20.55;7.75;;;;;;;12.01;86.00;102030.59;4994312;28;20038;-76
2021/10/24 10:45:53;;;;;;;23.88;8.60;;;;;;;12.02;86.03;102013.09;5014057;28;20469;-76
2021/10/24 10:48:25;;;;;;;19.15;6.38;;;;;;;12.03;85.99;102029.25;5013817;28;20057;-75
2021/10/24 10:51:10;;;;;;;15.55;5.60;;;;;;;12.05;85.61;102034.47;4998320;28;20025;-78
2021/10/24 10:53:36;;;;;;;19.95;6.97;;;;;;;12.04;85.81;102039.09;5014716;28;20033;-75
2021/10/24 10:56:10;;;;;;;15.15;8.10;;;;;;;12.04;85.90;102062.88;5015044;28;20334;-75
2021/10/24 10:58:37;;;;;;;18.15;7.95;;;;;;;12.05;85.85;102023.53;5014276;28;20033;-75
2021/10/24 11:01:03;;;;;;;24.45;8.60;;;;;;;12.05;85.74;102039.94;5012842;28;20030;-76
2021/10/24 11:03:46;;;;;;;24.98;9.00;;;;;;;12.05;85.84;102029.00;4996615;28;20088;-75
2021/10/24 11:06:32;;;;;;;19.70;7.78;;;;;;;12.04;85.78;102038.28;4996563;28;20030;-76
2021/10/24 11:08:59;;;;;;;14.82;6.82;;;;;;;12.05;86.01;102039.94;4993447;28;20045;-76
2021/10/24 11:11:40;;;;;;;22.20;6.80;;;;;;;12.03;85.81;102042.09;4997568;28;20053;-76
2021/10/24 11:14:11;;;;;;;21.98;7.72;;;;;;;12.04;85.96;102025.44;5004925;28;20366;-76
2021/10/24 11:16:50;;;;;;;28.70;8.73;;;;;;;12.03;85.75;102021.06;5011708;28;20056;-76
2021/10/24 11:22:01;;;;;;;23.30;7.65;;;;;;;12.03;85.90;102031.16;5013765;28;20392;-76